sensor_id;sensor_type;location;lat;lon;timestamp;temperature;humidity
30234;DHT22;17046;52.074;4.748;2022-11-15T00:01:35;7.00;99.90
30234;DHT22;17046;52.074;4.748;2022-11-15T00:04:03;7.00;99.90
30234;DHT22;17046;52.074;4.748;2022-11-15T00:06:29;7.00;99.90
30234;DHT22;17046;52.074;4.748;2022-11-15T00:08:54;7.00;99.90
30234;DHT22;17046;52.074;4.748;2022-11-15T00:11:20;7.00;99.90
30234;DHT22;17046;52.074;4.748;2022-11-15T00:13:45;7.00;99.90
30234;DHT22;17046;52.074;4.748;2022-11-15T00:16:11;6.90;99.90
30234;DHT22;17046;52.074;4.748;2022-11-15T00:18:38;6.90;99.90
30234;DHT22;17046;52.074;4.748;2022-11-15T00:21:06;7.00;99.90
30234;DHT22;17046;52.074;4.748;2022-11-15T00:23:33;7.00;99.90
30234;DHT22;17046;52.074;4.748;2022-11-15T00:25:59;7.00;99.90
30234;DHT22;17046;52.074;4.748;2022-11-15T00:28:25;7.00;99.90
30234;DHT22;17046;52.074;4.748;2022-11-15T00:30:51;7.00;99.90
30234;DHT22;17046;52.074;4.748;2022-11-15T00:33:17;7.10;99.90
30234;DHT22;17046;52.074;4.748;2022-11-15T00:35:42;7.10;99.90
30234;DHT22;17046;52.074;4.748;2022-11-15T00:38:08;7.10;99.90
30234;DHT22;17046;52.074;4.748;2022-11-15T00:40:33;7.00;99.90
30234;DHT22;17046;52.074;4.748;2022-11-15T00:42:59;7.10;99.90
30234;DHT22;17046;52.074;4.748;2022-11-15T00:45:26;7.10;99.90
30234;DHT22;17046;52.074;4.748;2022-11-15T00:47:51;7.10;99.90
30234;DHT22;17046;52.074;4.748;2022-11-15T00:50:17;7.10;99.90
30234;DHT22;17046;52.074;4.748;2022-11-15T00:52:43;7.20;99.90
30234;DHT22;17046;52.074;4.748;2022-11-15T00:55:16;7.20;99.90
30234;DHT22;17046;52.074;4.748;2022-11-15T00:57:43;7.10;99.90
30234;DHT22;17046;52.074;4.748;2022-11-15T01:00:09;7.10;99.90
30234;DHT22;17046;52.074;4.748;2022-11-15T01:02:35;7.10;99.90
30234;DHT22;17046;52.074;4.748;2022-11-15T01:05:00;7.20;99.90
30234;DHT22;17046;52.074;4.748;2022-11-15T01:07:26;7.20;99.90
30234;DHT22;17046;52.074;4.748;2022-11-15T01:09:52;7.20;99.90
30234;DHT22;17046;52.074;4.748;2022-11-15T01:12:17;7.20;99.90
30234;DHT22;17046;52.074;4.748;2022-11-15T01:14:43;7.10;99.90
30234;DHT22;17046;52.074;4.748;2022-11-15T01:17:08;7.10;99.90
30234;DHT22;17046;52.074;4.748;2022-11-15T01:19:34;7.10;99.90
30234;DHT22;17046;52.074;4.748;2022-11-15T01:21:59;7.10;99.90
30234;DHT22;17046;52.074;4.748;2022-11-15T01:24:25;7.10;99.90
30234;DHT22;17046;52.074;4.748;2022-11-15T01:26:50;7.10;99.90
30234;DHT22;17046;52.074;4.748;2022-11-15T01:29:16;7.10;99.90
30234;DHT22;17046;52.074;4.748;2022-11-15T01:31:41;7.20;99.90
30234;DHT22;17046;52.074;4.748;2022-11-15T01:34:07;7.20;99.90
30234;DHT22;17046;52.074;4.748;2022-11-15T01:36:33;7.20;99.90
30234;DHT22;17046;52.074;4.748;2022-11-15T01:38:59;7.20;99.90
30234;DHT22;17046;52.074;4.748;2022-11-15T01:41:31;7.20;99.90
30234;DHT22;17046;52.074;4.748;2022-11-15T01:47:21;7.30;99.90
30234;DHT22;17046;52.074;4.748;2022-11-15T01:50:13;7.40;99.90
30234;DHT22;17046;52.074;4.748;2022-11-15T01:52:41;7.50;99.90
30234;DHT22;17046;52.074;4.748;2022-11-15T01:55:18;7.50;99.90
30234;DHT22;17046;52.074;4.748;2022-11-15T01:57:46;7.50;99.90
30234;DHT22;17046;52.074;4.748;2022-11-15T02:00:13;7.60;99.90
30234;DHT22;17046;52.074;4.748;2022-11-15T02:02:39;7.60;99.90
30234;DHT22;17046;52.074;4.748;2022-11-15T02:05:05;7.70;99.90
30234;DHT22;17046;52.074;4.748;2022-11-15T02:07:32;7.70;99.90
30234;DHT22;17046;52.074;4.748;2022-11-15T02:10:04;7.70;99.90
30234;DHT22;17046;52.074;4.748;2022-11-15T02:12:30;7.70;99.90
30234;DHT22;17046;52.074;4.748;2022-11-15T02:14:56;7.70;99.90
30234;DHT22;17046;52.074;4.748;2022-11-15T02:20:07;7.80;99.90
30234;DHT22;17046;52.074;4.748;2022-11-15T02:28:31;7.90;99.90
30234;DHT22;17046;52.074;4.748;2022-11-15T02:33:50;8.00;99.90
30234;DHT22;17046;52.074;4.748;2022-11-15T02:36:43;8.00;99.90
30234;DHT22;17046;52.074;4.748;2022-11-15T02:39:27;8.00;99.90
30234;DHT22;17046;52.074;4.748;2022-11-15T02:42:18;8.10;99.90
30234;DHT22;17046;52.074;4.748;2022-11-15T02:45:06;8.10;99.90
30234;DHT22;17046;52.074;4.748;2022-11-15T02:47:37;8.10;99.90
30234;DHT22;17046;52.074;4.748;2022-11-15T02:50:08;8.20;99.90
30234;DHT22;17046;52.074;4.748;2022-11-15T02:52:35;8.30;99.90
30234;DHT22;17046;52.074;4.748;2022-11-15T02:55:01;8.30;99.90
30234;DHT22;17046;52.074;4.748;2022-11-15T02:57:36;8.30;99.90
30234;DHT22;17046;52.074;4.748;2022-11-15T03:05:34;8.40;99.90
30234;DHT22;17046;52.074;4.748;2022-11-15T03:08:11;8.50;99.90
30234;DHT22;17046;52.074;4.748;2022-11-15T03:16:50;8.70;99.90
30234;DHT22;17046;52.074;4.748;2022-11-15T03:19:19;8.70;99.90
30234;DHT22;17046;52.074;4.748;2022-11-15T03:21:48;8.70;99.90
30234;DHT22;17046;52.074;4.748;2022-11-15T03:24:16;8.80;99.90
30234;DHT22;17046;52.074;4.748;2022-11-15T03:26:44;8.80;99.90
30234;DHT22;17046;52.074;4.748;2022-11-15T03:29:16;8.80;99.90
30234;DHT22;17046;52.074;4.748;2022-11-15T03:31:46;8.90;99.90
30234;DHT22;17046;52.074;4.748;2022-11-15T03:34:24;8.90;99.90
30234;DHT22;17046;52.074;4.748;2022-11-15T03:36:52;9.00;99.90
30234;DHT22;17046;52.074;4.748;2022-11-15T03:39:19;9.00;99.90
30234;DHT22;17046;52.074;4.748;2022-11-15T03:49:57;9.20;99.90
30234;DHT22;17046;52.074;4.748;2022-11-15T03:52:24;9.20;99.90
30234;DHT22;17046;52.074;4.748;2022-11-15T03:54:55;9.30;99.90
30234;DHT22;17046;52.074;4.748;2022-11-15T03:57:21;9.30;99.90
30234;DHT22;17046;52.074;4.748;2022-11-15T03:59:46;9.30;99.90
30234;DHT22;17046;52.074;4.748;2022-11-15T04:02:13;9.30;99.90
30234;DHT22;17046;52.074;4.748;2022-11-15T04:04:38;9.40;99.90
30234;DHT22;17046;52.074;4.748;2022-11-15T04:07:05;9.40;99.90
30234;DHT22;17046;52.074;4.748;2022-11-15T04:09:30;9.50;99.90
30234;DHT22;17046;52.074;4.748;2022-11-15T04:11:56;9.50;99.90
30234;DHT22;17046;52.074;4.748;2022-11-15T04:14:21;9.50;99.90
30234;DHT22;17046;52.074;4.748;2022-11-15T04:16:47;9.60;99.90
30234;DHT22;17046;52.074;4.748;2022-11-15T04:19:12;9.60;99.90
30234;DHT22;17046;52.074;4.748;2022-11-15T04:21:56;9.60;99.90
30234;DHT22;17046;52.074;4.748;2022-11-15T04:24:40;9.60;99.90
30234;DHT22;17046;52.074;4.748;2022-11-15T04:27:06;9.60;99.90
30234;DHT22;17046;52.074;4.748;2022-11-15T04:29:32;9.60;99.90
30234;DHT22;17046;52.074;4.748;2022-11-15T04:32:01;9.70;99.90
30234;DHT22;17046;52.074;4.748;2022-11-15T04:34:27;9.60;99.90
30234;DHT22;17046;52.074;4.748;2022-11-15T04:36:52;9.70;99.90
30234;DHT22;17046;52.074;4.748;2022-11-15T04:39:37;9.70;99.90
30234;DHT22;17046;52.074;4.748;2022-11-15T04:42:03;9.60;99.90
30234;DHT22;17046;52.074;4.748;2022-11-15T04:44:28;9.60;99.90
30234;DHT22;17046;52.074;4.748;2022-11-15T04:46:54;9.70;99.90
30234;DHT22;17046;52.074;4.748;2022-11-15T04:49:19;9.70;99.90
30234;DHT22;17046;52.074;4.748;2022-11-15T04:51:45;9.70;99.90
30234;DHT22;17046;52.074;4.748;2022-11-15T04:54:10;9.70;99.90
30234;DHT22;17046;52.074;4.748;2022-11-15T04:56:36;9.70;99.90
30234;DHT22;17046;52.074;4.748;2022-11-15T04:59:01;9.70;99.90
30234;DHT22;17046;52.074;4.748;2022-11-15T05:01:27;9.80;99.90
30234;DHT22;17046;52.074;4.748;2022-11-15T05:03:52;9.80;99.90
30234;DHT22;17046;52.074;4.748;2022-11-15T05:06:36;9.80;99.90
30234;DHT22;17046;52.074;4.748;2022-11-15T05:09:04;9.80;99.90
30234;DHT22;17046;52.074;4.748;2022-11-15T05:11:29;9.90;99.90
30234;DHT22;17046;52.074;4.748;2022-11-15T05:13:55;9.90;99.90
30234;DHT22;17046;52.074;4.748;2022-11-15T05:16:20;9.90;99.90
30234;DHT22;17046;52.074;4.748;2022-11-15T05:18:46;9.90;99.90
30234;DHT22;17046;52.074;4.748;2022-11-15T05:21:14;9.90;99.90
30234;DHT22;17046;52.074;4.748;2022-11-15T05:23:40;9.90;99.90
30234;DHT22;17046;52.074;4.748;2022-11-15T05:26:10;10.00;99.90
30234;DHT22;17046;52.074;4.748;2022-11-15T05:28:36;10.10;99.90
30234;DHT22;17046;52.074;4.748;2022-11-15T05:31:08;10.10;99.90
30234;DHT22;17046;52.074;4.748;2022-11-15T05:33:35;10.20;99.90
30234;DHT22;17046;52.074;4.748;2022-11-15T05:36:09;10.20;99.90
30234;DHT22;17046;52.074;4.748;2022-11-15T05:38:37;10.30;99.90
30234;DHT22;17046;52.074;4.748;2022-11-15T05:41:03;10.20;99.90
30234;DHT22;17046;52.074;4.748;2022-11-15T05:43:30;10.30;99.90
30234;DHT22;17046;52.074;4.748;2022-11-15T05:45:58;10.20;99.90
30234;DHT22;17046;52.074;4.748;2022-11-15T05:48:25;10.30;99.90
30234;DHT22;17046;52.074;4.748;2022-11-15T05:50:51;10.30;99.90
30234;DHT22;17046;52.074;4.748;2022-11-15T05:53:19;10.30;99.90
30234;DHT22;17046;52.074;4.748;2022-11-15T05:55:46;10.30;99.90
30234;DHT22;17046;52.074;4.748;2022-11-15T05:58:11;10.30;99.90
30234;DHT22;17046;52.074;4.748;2022-11-15T06:00:37;10.30;99.90
30234;DHT22;17046;52.074;4.748;2022-11-15T06:03:03;10.30;99.90
30234;DHT22;17046;52.074;4.748;2022-11-15T06:05:28;10.30;99.90
30234;DHT22;17046;52.074;4.748;2022-11-15T06:07:57;10.30;99.90
30234;DHT22;17046;52.074;4.748;2022-11-15T06:10:24;10.30;99.90
30234;DHT22;17046;52.074;4.748;2022-11-15T06:12:57;10.30;99.90
30234;DHT22;17046;52.074;4.748;2022-11-15T06:15:23;10.20;99.90
30234;DHT22;17046;52.074;4.748;2022-11-15T06:17:48;10.20;99.90
30234;DHT22;17046;52.074;4.748;2022-11-15T06:20:14;10.20;99.90
30234;DHT22;17046;52.074;4.748;2022-11-15T06:22:40;10.20;99.90
30234;DHT22;17046;52.074;4.748;2022-11-15T06:25:05;10.20;99.90
30234;DHT22;17046;52.074;4.748;2022-11-15T06:27:31;10.20;99.90
30234;DHT22;17046;52.074;4.748;2022-11-15T06:29:56;10.20;99.90
30234;DHT22;17046;52.074;4.748;2022-11-15T06:32:22;10.20;99.90
30234;DHT22;17046;52.074;4.748;2022-11-15T06:34:47;10.10;99.90
30234;DHT22;17046;52.074;4.748;2022-11-15T06:37:13;10.10;99.90
30234;DHT22;17046;52.074;4.748;2022-11-15T06:39:38;10.10;99.90
30234;DHT22;17046;52.074;4.748;2022-11-15T06:42:04;10.10;99.90
30234;DHT22;17046;52.074;4.748;2022-11-15T06:44:29;10.00;99.90
30234;DHT22;17046;52.074;4.748;2022-11-15T06:46:55;10.00;99.90
30234;DHT22;17046;52.074;4.748;2022-11-15T06:49:20;9.90;99.90
30234;DHT22;17046;52.074;4.748;2022-11-15T06:51:46;9.80;99.90
30234;DHT22;17046;52.074;4.748;2022-11-15T06:54:11;9.70;99.90
30234;DHT22;17046;52.074;4.748;2022-11-15T06:56:37;9.70;99.90
30234;DHT22;17046;52.074;4.748;2022-11-15T06:59:03;9.70;99.90
30234;DHT22;17046;52.074;4.748;2022-11-15T07:01:28;9.70;99.90
30234;DHT22;17046;52.074;4.748;2022-11-15T07:03:54;9.60;99.90
30234;DHT22;17046;52.074;4.748;2022-11-15T07:06:19;9.50;99.90
30234;DHT22;17046;52.074;4.748;2022-11-15T07:08:45;9.60;99.90
30234;DHT22;17046;52.074;4.748;2022-11-15T07:11:10;9.50;99.90
30234;DHT22;17046;52.074;4.748;2022-11-15T07:13:36;9.50;99.90
30234;DHT22;17046;52.074;4.748;2022-11-15T07:16:07;9.60;99.90
30234;DHT22;17046;52.074;4.748;2022-11-15T07:18:34;9.50;99.90
30234;DHT22;17046;52.074;4.748;2022-11-15T07:21:02;9.60;99.90
30234;DHT22;17046;52.074;4.748;2022-11-15T07:23:28;9.50;99.90
30234;DHT22;17046;52.074;4.748;2022-11-15T07:25:55;9.50;99.90
30234;DHT22;17046;52.074;4.748;2022-11-15T07:28:21;9.50;99.90
30234;DHT22;17046;52.074;4.748;2022-11-15T07:30:46;9.50;99.90
30234;DHT22;17046;52.074;4.748;2022-11-15T07:33:12;9.60;99.90
30234;DHT22;17046;52.074;4.748;2022-11-15T07:35:37;9.60;99.90
30234;DHT22;17046;52.074;4.748;2022-11-15T07:38:03;9.70;99.90
30234;DHT22;17046;52.074;4.748;2022-11-15T07:40:31;9.60;99.90
30234;DHT22;17046;52.074;4.748;2022-11-15T07:43:01;9.60;99.90
30234;DHT22;17046;52.074;4.748;2022-11-15T07:45:27;9.60;99.90
30234;DHT22;17046;52.074;4.748;2022-11-15T07:47:54;9.60;99.90
30234;DHT22;17046;52.074;4.748;2022-11-15T07:50:21;9.50;99.90
30234;DHT22;17046;52.074;4.748;2022-11-15T07:52:47;9.50;99.90
30234;DHT22;17046;52.074;4.748;2022-11-15T07:55:12;9.50;99.90
30234;DHT22;17046;52.074;4.748;2022-11-15T07:57:38;9.50;99.90
30234;DHT22;17046;52.074;4.748;2022-11-15T08:00:05;9.50;99.90
30234;DHT22;17046;52.074;4.748;2022-11-15T08:02:31;9.60;99.90
30234;DHT22;17046;52.074;4.748;2022-11-15T08:04:56;9.70;99.90
30234;DHT22;17046;52.074;4.748;2022-11-15T08:07:22;9.70;99.90
30234;DHT22;17046;52.074;4.748;2022-11-15T08:09:48;9.80;99.90
30234;DHT22;17046;52.074;4.748;2022-11-15T08:12:14;9.80;99.90
30234;DHT22;17046;52.074;4.748;2022-11-15T08:14:40;9.90;99.90
30234;DHT22;17046;52.074;4.748;2022-11-15T08:17:05;9.90;99.90
30234;DHT22;17046;52.074;4.748;2022-11-15T08:19:31;9.90;99.90
30234;DHT22;17046;52.074;4.748;2022-11-15T08:21:56;9.90;99.90
30234;DHT22;17046;52.074;4.748;2022-11-15T08:24:22;9.90;99.90
30234;DHT22;17046;52.074;4.748;2022-11-15T08:26:47;9.90;99.90
30234;DHT22;17046;52.074;4.748;2022-11-15T08:29:13;9.90;99.90
30234;DHT22;17046;52.074;4.748;2022-11-15T08:31:38;9.90;99.90
30234;DHT22;17046;52.074;4.748;2022-11-15T08:34:06;9.90;99.90
30234;DHT22;17046;52.074;4.748;2022-11-15T08:36:32;10.00;99.90
30234;DHT22;17046;52.074;4.748;2022-11-15T08:38:57;10.00;99.90
30234;DHT22;17046;52.074;4.748;2022-11-15T08:41:35;10.10;99.90
30234;DHT22;17046;52.074;4.748;2022-11-15T08:44:02;10.20;99.90
30234;DHT22;17046;52.074;4.748;2022-11-15T08:46:27;10.20;99.90
30234;DHT22;17046;52.074;4.748;2022-11-15T08:48:53;10.20;99.90
30234;DHT22;17046;52.074;4.748;2022-11-15T08:51:18;10.30;99.90
30234;DHT22;17046;52.074;4.748;2022-11-15T08:53:44;10.30;99.90
30234;DHT22;17046;52.074;4.748;2022-11-15T08:56:11;10.30;99.90
30234;DHT22;17046;52.074;4.748;2022-11-15T08:58:37;10.40;99.90
30234;DHT22;17046;52.074;4.748;2022-11-15T09:01:03;10.50;99.90
30234;DHT22;17046;52.074;4.748;2022-11-15T09:03:29;10.50;99.90
30234;DHT22;17046;52.074;4.748;2022-11-15T09:05:56;10.50;99.90
30234;DHT22;17046;52.074;4.748;2022-11-15T09:08:22;10.50;99.90
30234;DHT22;17046;52.074;4.748;2022-11-15T09:10:48;10.50;99.90
30234;DHT22;17046;52.074;4.748;2022-11-15T09:13:13;10.50;99.90
30234;DHT22;17046;52.074;4.748;2022-11-15T09:15:39;10.60;99.90
30234;DHT22;17046;52.074;4.748;2022-11-15T09:18:05;10.70;99.90
30234;DHT22;17046;52.074;4.748;2022-11-15T09:20:30;10.70;99.90
30234;DHT22;17046;52.074;4.748;2022-11-15T09:23:00;10.80;99.90
30234;DHT22;17046;52.074;4.748;2022-11-15T09:25:26;10.80;99.90
30234;DHT22;17046;52.074;4.748;2022-11-15T09:27:52;10.90;99.90
30234;DHT22;17046;52.074;4.748;2022-11-15T09:30:17;10.80;99.90
30234;DHT22;17046;52.074;4.748;2022-11-15T09:32:43;10.80;99.90
30234;DHT22;17046;52.074;4.748;2022-11-15T09:35:08;10.90;99.90
30234;DHT22;17046;52.074;4.748;2022-11-15T09:37:34;10.90;99.90
30234;DHT22;17046;52.074;4.748;2022-11-15T09:39:59;10.90;99.90
30234;DHT22;17046;52.074;4.748;2022-11-15T09:42:35;11.00;99.90
30234;DHT22;17046;52.074;4.748;2022-11-15T09:45:22;11.00;99.90
30234;DHT22;17046;52.074;4.748;2022-11-15T09:48:20;11.10;99.90
30234;DHT22;17046;52.074;4.748;2022-11-15T09:50:51;11.10;99.90
30234;DHT22;17046;52.074;4.748;2022-11-15T09:53:26;11.10;99.90
30234;DHT22;17046;52.074;4.748;2022-11-15T09:56:01;11.20;99.90
30234;DHT22;17046;52.074;4.748;2022-11-15T09:58:37;11.20;99.90
30234;DHT22;17046;52.074;4.748;2022-11-15T10:01:12;11.20;99.90
30234;DHT22;17046;52.074;4.748;2022-11-15T10:03:41;11.20;99.90
30234;DHT22;17046;52.074;4.748;2022-11-15T10:06:25;11.20;99.90
30234;DHT22;17046;52.074;4.748;2022-11-15T10:11:36;11.20;99.90
30234;DHT22;17046;52.074;4.748;2022-11-15T10:14:16;11.20;99.90
30234;DHT22;17046;52.074;4.748;2022-11-15T10:19:28;11.30;99.90
30234;DHT22;17046;52.074;4.748;2022-11-15T10:24:40;11.30;99.90
30234;DHT22;17046;52.074;4.748;2022-11-15T10:27:13;11.30;99.90
30234;DHT22;17046;52.074;4.748;2022-11-15T10:29:47;11.30;99.90
30234;DHT22;17046;52.074;4.748;2022-11-15T10:32:16;11.40;99.90
30234;DHT22;17046;52.074;4.748;2022-11-15T10:34:42;11.50;99.90
30234;DHT22;17046;52.074;4.748;2022-11-15T10:37:08;11.50;99.90
30234;DHT22;17046;52.074;4.748;2022-11-15T10:39:34;11.60;99.90
30234;DHT22;17046;52.074;4.748;2022-11-15T10:42:27;11.60;99.90
30234;DHT22;17046;52.074;4.748;2022-11-15T10:44:53;11.70;99.90
30234;DHT22;17046;52.074;4.748;2022-11-15T10:47:28;11.80;99.90
30234;DHT22;17046;52.074;4.748;2022-11-15T10:50:03;11.80;99.90
30234;DHT22;17046;52.074;4.748;2022-11-15T10:52:30;11.90;99.90
30234;DHT22;17046;52.074;4.748;2022-11-15T10:57:38;11.90;99.90
30234;DHT22;17046;52.074;4.748;2022-11-15T11:02:58;11.90;99.90
30234;DHT22;17046;52.074;4.748;2022-11-15T11:05:38;11.70;99.90
30234;DHT22;17046;52.074;4.748;2022-11-15T11:10:36;11.70;99.90
30234;DHT22;17046;52.074;4.748;2022-11-15T11:13:22;11.80;99.90
30234;DHT22;17046;52.074;4.748;2022-11-15T11:15:58;11.80;99.90
30234;DHT22;17046;52.074;4.748;2022-11-15T11:18:33;11.90;99.90
30234;DHT22;17046;52.074;4.748;2022-11-15T11:21:08;11.90;99.90
30234;DHT22;17046;52.074;4.748;2022-11-15T11:23:53;11.90;99.90
30234;DHT22;17046;52.074;4.748;2022-11-15T11:40:38;12.10;90.20
30234;DHT22;17046;52.074;4.748;2022-11-15T11:51:30;12.00;49.70
30234;DHT22;17046;52.074;4.748;2022-11-15T11:53:58;12.00;55.90
30234;DHT22;17046;52.074;4.748;2022-11-15T11:56:32;12.00;52.80
30234;DHT22;17046;52.074;4.748;2022-11-15T11:59:13;12.10;52.90
30234;DHT22;17046;52.074;4.748;2022-11-15T12:01:44;12.00;41.20
30234;DHT22;17046;52.074;4.748;2022-11-15T12:04:34;12.10;52.00
30234;DHT22;17046;52.074;4.748;2022-11-15T12:07:31;12.10;44.60
30234;DHT22;17046;52.074;4.748;2022-11-15T12:10:32;12.00;55.30
30234;DHT22;17046;52.074;4.748;2022-11-15T12:13:06;12.10;57.60
30234;DHT22;17046;52.074;4.748;2022-11-15T12:18:11;12.00;48.00
30234;DHT22;17046;52.074;4.748;2022-11-15T12:20:40;12.10;57.80
30234;DHT22;17046;52.074;4.748;2022-11-15T12:23:17;12.10;63.00
30234;DHT22;17046;52.074;4.748;2022-11-15T12:26:00;12.20;60.80
30234;DHT22;17046;52.074;4.748;2022-11-15T12:33:58;12.40;36.10
30234;DHT22;17046;52.074;4.748;2022-11-15T12:38:59;12.30;29.70
30234;DHT22;17046;52.074;4.748;2022-11-15T12:41:30;12.40;27.50
30234;DHT22;17046;52.074;4.748;2022-11-15T12:43:56;12.40;24.80
30234;DHT22;17046;52.074;4.748;2022-11-15T12:49:07;12.50;14.30
30234;DHT22;17046;52.074;4.748;2022-11-15T12:59:53;12.60;1.00
30234;DHT22;17046;52.074;4.748;2022-11-15T13:04:54;12.60;1.00
30234;DHT22;17046;52.074;4.748;2022-11-15T13:30:57;12.10;1.00
30234;DHT22;17046;52.074;4.748;2022-11-15T13:33:30;12.00;1.00
30234;DHT22;17046;52.074;4.748;2022-11-15T13:35:59;12.00;1.00
30234;DHT22;17046;52.074;4.748;2022-11-15T13:40:52;12.00;1.00
30234;DHT22;17046;52.074;4.748;2022-11-15T13:46:11;12.00;1.00
30234;DHT22;17046;52.074;4.748;2022-11-15T13:48:37;12.00;1.00
30234;DHT22;17046;52.074;4.748;2022-11-15T13:51:19;12.00;1.00
30234;DHT22;17046;52.074;4.748;2022-11-15T13:53:50;11.90;1.00
30234;DHT22;17046;52.074;4.748;2022-11-15T13:56:18;11.90;1.00
30234;DHT22;17046;52.074;4.748;2022-11-15T13:58:44;11.90;1.00
30234;DHT22;17046;52.074;4.748;2022-11-15T14:01:18;11.90;1.00
30234;DHT22;17046;52.074;4.748;2022-11-15T14:03:52;11.90;1.00
30234;DHT22;17046;52.074;4.748;2022-11-15T14:06:21;11.90;1.00
30234;DHT22;17046;52.074;4.748;2022-11-15T14:11:34;12.00;1.00
30234;DHT22;17046;52.074;4.748;2022-11-15T14:16:47;12.10;1.00
30234;DHT22;17046;52.074;4.748;2022-11-15T14:19:34;12.10;1.00
30234;DHT22;17046;52.074;4.748;2022-11-15T14:22:27;12.10;1.00
30234;DHT22;17046;52.074;4.748;2022-11-15T14:27:38;12.10;1.00
30234;DHT22;17046;52.074;4.748;2022-11-15T14:30:04;12.10;1.00
30234;DHT22;17046;52.074;4.748;2022-11-15T14:32:43;12.00;1.00
30234;DHT22;17046;52.074;4.748;2022-11-15T14:35:21;12.00;1.00
30234;DHT22;17046;52.074;4.748;2022-11-15T14:37:47;12.00;1.00
30234;DHT22;17046;52.074;4.748;2022-11-15T14:40:16;12.00;1.00
30234;DHT22;17046;52.074;4.748;2022-11-15T14:42:44;12.00;1.00
30234;DHT22;17046;52.074;4.748;2022-11-15T14:45:15;12.00;1.00
30234;DHT22;17046;52.074;4.748;2022-11-15T14:47:41;11.90;1.00
30234;DHT22;17046;52.074;4.748;2022-11-15T14:50:11;12.00;1.00
30234;DHT22;17046;52.074;4.748;2022-11-15T14:52:37;12.00;1.00
30234;DHT22;17046;52.074;4.748;2022-11-15T14:55:10;12.00;1.00
30234;DHT22;17046;52.074;4.748;2022-11-15T14:57:37;12.00;1.00
30234;DHT22;17046;52.074;4.748;2022-11-15T15:00:03;12.00;1.00
30234;DHT22;17046;52.074;4.748;2022-11-15T15:02:29;12.00;1.00
30234;DHT22;17046;52.074;4.748;2022-11-15T15:04:55;12.00;1.00
30234;DHT22;17046;52.074;4.748;2022-11-15T15:07:22;11.90;1.00
30234;DHT22;17046;52.074;4.748;2022-11-15T15:09:47;11.90;1.00
30234;DHT22;17046;52.074;4.748;2022-11-15T15:12:21;11.80;1.00
30234;DHT22;17046;52.074;4.748;2022-11-15T15:14:49;11.80;1.00
30234;DHT22;17046;52.074;4.748;2022-11-15T15:17:15;11.80;1.00
30234;DHT22;17046;52.074;4.748;2022-11-15T15:19:41;11.70;1.10
30234;DHT22;17046;52.074;4.748;2022-11-15T15:22:15;11.80;1.00
30234;DHT22;17046;52.074;4.748;2022-11-15T15:24:43;11.80;2.60
30234;DHT22;17046;52.074;4.748;2022-11-15T15:27:09;11.70;2.00
30234;DHT22;17046;52.074;4.748;2022-11-15T15:29:35;11.70;3.70
30234;DHT22;17046;52.074;4.748;2022-11-15T15:32:00;11.70;4.60
30234;DHT22;17046;52.074;4.748;2022-11-15T15:34:26;11.70;1.80
30234;DHT22;17046;52.074;4.748;2022-11-15T15:39:39;11.70;1.00
30234;DHT22;17046;52.074;4.748;2022-11-15T15:42:04;11.70;4.60
30234;DHT22;17046;52.074;4.748;2022-11-15T15:44:30;11.70;10.60
30234;DHT22;17046;52.074;4.748;2022-11-15T15:46:56;11.70;7.70
30234;DHT22;17046;52.074;4.748;2022-11-15T15:49:23;11.70;10.90
30234;DHT22;17046;52.074;4.748;2022-11-15T15:51:48;11.70;6.60
30234;DHT22;17046;52.074;4.748;2022-11-15T15:54:14;11.70;15.20
30234;DHT22;17046;52.074;4.748;2022-11-15T15:56:40;11.70;9.40
30234;DHT22;17046;52.074;4.748;2022-11-15T15:59:05;11.70;13.10
30234;DHT22;17046;52.074;4.748;2022-11-15T16:01:31;11.70;17.40
30234;DHT22;17046;52.074;4.748;2022-11-15T16:03:56;11.70;16.50
30234;DHT22;17046;52.074;4.748;2022-11-15T16:06:51;11.70;30.00
30234;DHT22;17046;52.074;4.748;2022-11-15T16:09:19;11.70;49.60
30234;DHT22;17046;52.074;4.748;2022-11-15T16:12:04;11.60;72.10
30234;DHT22;17046;52.074;4.748;2022-11-15T16:14:31;11.50;88.20
30234;DHT22;17046;52.074;4.748;2022-11-15T16:16:57;11.40;98.20
30234;DHT22;17046;52.074;4.748;2022-11-15T16:19:22;11.40;99.90
30234;DHT22;17046;52.074;4.748;2022-11-15T16:21:48;11.30;99.90
30234;DHT22;17046;52.074;4.748;2022-11-15T16:24:13;11.20;99.90
30234;DHT22;17046;52.074;4.748;2022-11-15T16:26:39;11.10;99.90
30234;DHT22;17046;52.074;4.748;2022-11-15T16:29:05;11.10;99.90
30234;DHT22;17046;52.074;4.748;2022-11-15T16:31:32;11.00;99.90
30234;DHT22;17046;52.074;4.748;2022-11-15T16:33:57;11.00;99.90
30234;DHT22;17046;52.074;4.748;2022-11-15T16:36:25;10.90;99.90
30234;DHT22;17046;52.074;4.748;2022-11-15T16:38:51;10.90;99.90
30234;DHT22;17046;52.074;4.748;2022-11-15T16:41:17;10.80;99.90
30234;DHT22;17046;52.074;4.748;2022-11-15T16:43:49;10.90;99.90
30234;DHT22;17046;52.074;4.748;2022-11-15T16:46:20;10.80;99.90
30234;DHT22;17046;52.074;4.748;2022-11-15T16:48:46;10.80;99.90
30234;DHT22;17046;52.074;4.748;2022-11-15T16:51:12;10.80;99.90
30234;DHT22;17046;52.074;4.748;2022-11-15T16:53:38;10.80;99.90
30234;DHT22;17046;52.074;4.748;2022-11-15T16:56:09;10.80;99.90
30234;DHT22;17046;52.074;4.748;2022-11-15T16:58:39;10.80;99.90
30234;DHT22;17046;52.074;4.748;2022-11-15T17:01:04;10.70;99.90
30234;DHT22;17046;52.074;4.748;2022-11-15T17:03:30;10.80;99.90
30234;DHT22;17046;52.074;4.748;2022-11-15T17:05:57;10.80;99.90
30234;DHT22;17046;52.074;4.748;2022-11-15T17:08:26;10.70;99.90
30234;DHT22;17046;52.074;4.748;2022-11-15T17:10:52;10.70;99.90
30234;DHT22;17046;52.074;4.748;2022-11-15T17:13:18;10.80;99.90
30234;DHT22;17046;52.074;4.748;2022-11-15T17:15:44;10.70;99.90
30234;DHT22;17046;52.074;4.748;2022-11-15T17:18:10;10.70;99.90
30234;DHT22;17046;52.074;4.748;2022-11-15T17:20:37;10.80;99.90
30234;DHT22;17046;52.074;4.748;2022-11-15T17:23:04;10.80;99.90
30234;DHT22;17046;52.074;4.748;2022-11-15T17:25:36;10.80;99.90
30234;DHT22;17046;52.074;4.748;2022-11-15T17:28:02;10.80;99.90
30234;DHT22;17046;52.074;4.748;2022-11-15T17:30:27;10.80;99.90
30234;DHT22;17046;52.074;4.748;2022-11-15T17:32:53;10.80;99.90
30234;DHT22;17046;52.074;4.748;2022-11-15T17:35:18;10.80;99.90
30234;DHT22;17046;52.074;4.748;2022-11-15T17:37:44;10.80;99.90
30234;DHT22;17046;52.074;4.748;2022-11-15T17:40:10;10.80;99.90
30234;DHT22;17046;52.074;4.748;2022-11-15T17:42:36;10.80;99.90
30234;DHT22;17046;52.074;4.748;2022-11-15T17:45:01;10.80;99.90
30234;DHT22;17046;52.074;4.748;2022-11-15T17:47:27;10.80;99.90
30234;DHT22;17046;52.074;4.748;2022-11-15T17:49:52;10.70;99.90
30234;DHT22;17046;52.074;4.748;2022-11-15T17:52:18;10.80;99.90
30234;DHT22;17046;52.074;4.748;2022-11-15T17:54:44;10.70;99.90
30234;DHT22;17046;52.074;4.748;2022-11-15T17:57:09;10.70;99.90
30234;DHT22;17046;52.074;4.748;2022-11-15T17:59:35;10.70;99.90
30234;DHT22;17046;52.074;4.748;2022-11-15T18:02:00;10.70;99.90
30234;DHT22;17046;52.074;4.748;2022-11-15T18:04:26;10.80;99.90
30234;DHT22;17046;52.074;4.748;2022-11-15T18:06:53;10.80;99.90